Time;durP1;ratioP1;P1;durP2;ratioP2;P2;SDS_P1;SDS_P2;PMS_P1;PMS_P2;Temp;Humidity;BMP_temperature;BMP_pressure;BME280_temperature;BME280_humidity;BME280_pressure;Samples;Min_cycle;Max_cycle;Signal;HPM_P1;HPM_P2
2022/02/17 00:00:14;;;;;;;7.45;2.60;;;;;;;13.41;70.74;101179.22;2079578;28;20491;-74
2022/02/17 00:01:16;;;;;;;3.05;2.00;;;;;;;13.43;70.69;101174.84;2072880;28;20052;-75
2022/02/17 00:02:18;;;;;;;3.00;1.60;;;;;;;13.42;70.59;101168.63;2078800;28;20045;-75
2022/02/17 00:03:21;;;;;;;4.00;1.45;;;;;;;13.43;70.47;101170.41;2080258;28;20103;-74
2022/02/17 00:04:24;;;;;;;3.00;1.63;;;;;;;13.45;70.67;101166.03;2088647;28;20040;-75
2022/02/17 00:05:27;;;;;;;3.15;1.15;;;;;;;13.49;70.47;101167.84;2096276;28;20072;-75
2022/02/17 00:06:29;;;;;;;2.67;1.42;;;;;;;13.51;70.48;101162.56;2089446;28;20036;-75
2022/02/17 00:07:31;;;;;;;;;;;;;;;13.51;70.55;101171.41;2096457;28;20047;-75
2022/02/17 00:08:34;;;;;;;3.58;1.35;;;;;;;13.48;70.59;101171.34;2095958;28;19958;-74
2022/02/17 00:09:35;;;;;;;3.58;1.38;;;;;;;13.47;70.59;101173.97;2084083;28;20045;-74
2022/02/17 00:10:38;;;;;;;3.08;1.85;;;;;;;13.47;70.70;101174.88;2087687;28;20120;-74
2022/02/17 00:11:41;;;;;;;4.97;1.90;;;;;;;13.47;70.64;101172.22;2088090;28;20068;-75
2022/02/17 00:12:44;;;;;;;3.70;1.90;;;;;;;13.48;70.57;101168.69;2088195;28;20048;-75
2022/02/17 00:13:45;;;;;;;8.35;2.83;;;;;;;13.47;70.63;101166.91;2088376;28;20056;-74
2022/02/17 00:14:48;;;;;;;;;;;;;;;13.48;70.62;101171.34;2088439;28;20037;-75
2022/02/17 00:15:49;;;;;;;4.63;1.67;;;;;;;13.46;70.68;101166.88;2087716;28;19975;-75
2022/02/17 00:16:52;;;;;;;;;;;;;;;13.47;70.62;101168.69;2087992;28;20479;-75
2022/02/17 00:17:54;;;;;;;2.53;0.90;;;;;;;13.44;70.66;101171.31;2088382;28;20030;-76
2022/02/17 00:18:57;;;;;;;3.20;1.60;;;;;;;13.43;70.61;101161.56;2087930;28;20037;-74
2022/02/17 00:20:00;;;;;;;4.97;2.15;;;;;;;13.45;70.63;101168.69;2079000;28;20112;-74
2022/02/17 00:21:04;;;;;;;5.85;1.80;;;;;;;13.44;70.69;101174.84;2087774;28;20057;-74
2022/02/17 00:22:06;;;;;;;4.35;1.55;;;;;;;13.43;70.65;101170.41;2095699;28;20408;-74
2022/02/17 00:23:09;;;;;;;3.30;1.67;;;;;;;13.43;70.70;101162.47;2082219;28;20390;-74
2022/02/17 00:24:10;;;;;;;3.42;1.67;;;;;;;13.44;70.88;101168.66;2081368;28;20041;-75
2022/02/17 00:25:13;;;;;;;5.70;1.95;;;;;;;13.43;70.93;101172.19;2088495;28;20063;-75
2022/02/17 00:26:17;;;;;;;5.53;2.00;;;;;;;13.44;70.94;101166.00;2096325;28;20091;-75
2022/02/17 00:27:20;;;;;;;3.70;1.45;;;;;;;13.45;70.95;101165.13;2079580;28;20042;-74
2022/02/17 00:28:24;;;;;;;3.42;1.70;;;;;;;13.43;70.92;101162.47;2077683;28;20057;-74
2022/02/17 00:29:26;;;;;;;6.15;1.73;;;;;;;13.45;70.97;101168.69;2087916;28;20049;-75
2022/02/17 00:30:29;;;;;;;;;;;;;;;13.45;70.95;101168.69;2083957;28;20041;-75
2022/02/17 00:31:31;;;;;;;2.85;1.38;;;;;;;13.42;71.02;101170.41;2087417;28;19933;-74
2022/02/17 00:32:33;;;;;;;;;;;;;;;13.42;70.97;101158.03;2088345;28;20048;-74
2022/02/17 00:33:38;;;;;;;5.93;1.40;;;;;;;13.38;70.99;101158.88;2087025;28;19929;-74
2022/02/17 00:34:44;;;;;;;3.30;1.45;;;;;;;13.41;70.97;101160.66;2083171;28;20588;-74
2022/02/17 00:35:49;;;;;;;5.00;1.92;;;;;;;13.42;70.94;101163.34;2086911;28;20040;-74
2022/02/17 00:36:50;;;;;;;3.55;2.15;;;;;;;13.43;70.87;101151.84;2087722;28;20060;-75
2022/02/17 00:37:54;;;;;;;3.72;2.03;;;;;;;13.42;70.96;101157.13;2079580;28;20033;-75
2022/02/17 00:38:55;;;;;;;5.15;1.70;;;;;;;13.42;70.71;101158.03;2087948;28;20496;-74
2022/02/17 00:39:58;;;;;;;7.35;2.10;;;;;;;13.42;70.77;101162.44;2090014;28;20111;-74
2022/02/17 00:41:02;;;;;;;3.83;1.70;;;;;;;13.41;70.74;101158.00;2079478;28;20046;-74
2022/02/17 00:42:05;;;;;;;5.68;1.88;;;;;;;13.40;70.77;101148.28;2087131;28;20548;-75
2022/02/17 00:43:08;;;;;;;3.25;1.75;;;;;;;13.40;70.85;101140.31;2095423;28;20040;-75
2022/02/17 00:44:09;;;;;;;4.68;2.00;;;;;;;13.40;70.63;101135.91;2088893;28;20041;-76
2022/02/17 00:45:12;;;;;;;4.03;1.90;;;;;;;13.37;70.81;101138.53;2095768;28;20496;-75
2022/02/17 00:46:14;;;;;;;4.95;1.58;;;;;;;13.35;70.98;101132.31;2086896;28;20064;-76
2022/02/17 00:47:18;;;;;;;7.53;1.50;;;;;;;13.38;70.95;101136.78;2087326;28;20041;-74
2022/02/17 00:48:19;;;;;;;5.50;1.02;;;;;;;13.38;70.93;101136.78;2095866;28;20048;-75
2022/02/17 00:49:23;;;;;;;4.50;1.55;;;;;;;13.40;70.87;101135.00;2087642;28;20048;-74
2022/02/17 00:50:28;;;;;;;4.78;1.73;;;;;;;13.39;70.80;101128.81;2079685;28;20045;-74
2022/02/17 00:51:33;;;;;;;2.55;1.35;;;;;;;13.40;70.77;101129.72;2079634;28;20045;-74
2022/02/17 00:52:36;;;;;;;4.57;1.50;;;;;;;13.40;70.85;101129.72;2088497;28;20033;-74
2022/02/17 00:53:38;;;;;;;3.67;1.63;;;;;;;13.38;70.64;101127.06;2087488;28;20041;-74
2022/02/17 00:54:42;;;;;;;3.58;1.90;;;;;;;13.40;70.70;101124.41;2091995;28;20459;-74
2022/02/17 00:55:44;;;;;;;3.90;1.45;;;;;;;13.39;70.75;101127.97;2102985;28;20040;-75
2022/02/17 00:56:47;;;;;;;3.67;1.30;;;;;;;13.38;70.59;101126.19;2087301;28;20095;-74
2022/02/17 00:57:49;;;;;;;4.60;1.48;;;;;;;13.36;70.62;101120.84;2087287;28;20037;-74
2022/02/17 00:58:54;;;;;;;4.10;1.55;;;;;;;13.38;70.63;101126.19;2087572;28;20045;-74
2022/02/17 01:00:00;;;;;;;4.13;1.67;;;;;;;13.36;70.45;101112.88;2088216;28;20041;-74
2022/02/17 01:01:04;;;;;;;3.05;1.40;;;;;;;13.36;70.71;101120.84;2087617;28;20452;-75
2022/02/17 01:02:07;;;;;;;6.03;2.10;;;;;;;13.38;70.65;101123.53;2087369;28;20048;-74
2022/02/17 01:03:09;;;;;;;3.55;1.52;;;;;;;13.39;70.59;101125.31;2086992;28;20485;-75
2022/02/17 01:04:11;;;;;;;3.97;1.13;;;;;;;13.39;70.58;101122.66;2082988;28;20561;-74
2022/02/17 01:05:13;;;;;;;4.10;1.70;;;;;;;13.37;70.62;101125.28;2088073;28;20037;-74
2022/02/17 01:06:15;;;;;;;6.80;1.70;;;;;;;13.37;70.34;101114.66;2095095;28;20036;-74
2022/02/17 01:07:20;;;;;;;3.97;1.33;;;;;;;13.38;70.41;101119.09;2095753;28;20048;-75
2022/02/17 01:08:21;;;;;;;2.88;1.55;;;;;;;13.37;70.62;101121.75;2095607;28;20658;-75
2022/02/17 01:09:24;;;;;;;4.03;1.63;;;;;;;13.36;70.60;101126.16;2088006;28;20051;-75
2022/02/17 01:10:25;;;;;;;5.43;1.33;;;;;;;13.37;70.64;101119.09;2095275;28;20056;-75
2022/02/17 01:11:28;;;;;;;4.95;1.80;;;;;;;13.36;70.61;101117.31;2087270;28;20099;-75
2022/02/17 01:12:30;;;;;;;5.07;2.38;;;;;;;13.38;70.55;101120.88;2094571;28;20052;-75
2022/02/17 01:13:33;;;;;;;2.95;1.25;;;;;;;13.37;70.63;101119.09;2095567;28;20076;-74
2022/02/17 01:14:35;;;;;;;5.82;1.88;;;;;;;13.38;70.55;101116.47;2087688;28;20404;-75
2022/02/17 01:15:38;;;;;;;5.93;1.77;;;;;;;13.36;70.64;101110.25;2095763;28;20040;-74
2022/02/17 01:16:40;;;;;;;3.50;1.67;;;;;;;13.37;70.48;101101.41;2087166;28;20037;-75
2022/02/17 01:17:51;;;;;;;3.70;1.48;;;;;;;13.38;70.62;101104.97;2080224;28;20038;-74
2022/02/17 01:18:52;;;;;;;4.05;1.67;;;;;;;13.40;70.57;101112.03;2079920;28;20041;-74
2022/02/17 01:19:57;;;;;;;6.72;1.90;;;;;;;13.41;70.51;101121.78;2094716;28;20135;-74
2022/02/17 01:20:59;;;;;;;4.85;2.15;;;;;;;13.41;70.38;101127.06;2088775;28;20045;-74
2022/02/17 01:22:02;;;;;;;15.77;7.72;;;;;;;13.42;70.43;101117.34;2079714;28;20121;-74
2022/02/17 01:23:07;;;;;;;10.10;5.15;;;;;;;13.43;70.28;101117.38;2088147;28;20041;-74
2022/02/17 01:24:10;;;;;;;8.13;4.03;;;;;;;13.41;70.35;101116.47;2087253;28;20128;-74
2022/02/17 01:25:12;;;;;;;4.65;2.72;;;;;;;13.42;70.34;101107.66;2071069;28;20256;-74
2022/02/17 01:26:16;;;;;;;5.88;2.15;;;;;;;13.41;70.27;101119.13;2071494;28;20448;-74
2022/02/17 01:27:30;;;;;;;3.42;1.52;;;;;;;13.41;70.15;101113.81;2086205;28;20107;-74
2022/02/17 01:28:33;;;;;;;5.00;1.90;;;;;;;13.42;70.14;101110.28;2088087;28;20401;-74
2022/02/17 01:29:36;;;;;;;2.80;1.52;;;;;;;13.43;70.06;101109.44;2087357;28;20091;-74
2022/02/17 01:30:38;;;;;;;7.22;1.83;;;;;;;13.46;69.93;101104.13;2093722;28;20044;-75
2022/02/17 01:31:44;;;;;;;5.65;1.90;;;;;;;13.46;69.68;101098.81;2095812;28;20067;-74
2022/02/17 01:32:51;;;;;;;2.42;1.20;;;;;;;13.45;69.44;101105.03;2087339;28;20074;-75
2022/02/17 01:33:53;;;;;;;3.17;1.30;;;;;;;13.44;69.45;101102.34;2087623;28;20116;-74
2022/02/17 01:34:55;;;;;;;2.90;1.90;;;;;;;13.43;69.51;101098.81;2086936;28;20463;-74
2022/02/17 01:35:58;;;;;;;3.33;1.20;;;;;;;13.43;69.51;101105.88;2087699;28;20044;-74
2022/02/17 01:37:01;;;;;;;3.38;1.05;;;;;;;13.41;69.54;101095.25;2087215;28;20044;-75
2022/02/17 01:38:08;;;;;;;2.80;1.33;;;;;;;13.39;69.70;101098.78;2089125;28;20037;-74
2022/02/17 01:39:10;;;;;;;6.15;1.75;;;;;;;13.37;69.75;101092.56;2087108;28;20044;-74
2022/02/17 01:40:16;;;;;;;3.67;1.55;;;;;;;13.36;69.97;101099.63;2078396;28;20049;-75
2022/02/17 01:41:17;;;;;;;3.03;1.58;;;;;;;13.34;69.89;101098.72;2070453;28;20136;-75
2022/02/17 01:42:21;;;;;;;4.70;1.65;;;;;;;13.33;69.98;101098.69;2079350;28;20064;-74
2022/02/17 01:43:23;;;;;;;3.58;1.40;;;;;;;13.32;70.06;101087.22;2079087;28;20049;-75
2022/02/17 01:44:26;;;;;;;4.10;1.92;;;;;;;13.31;70.19;101093.41;2079034;28;20049;-76
2022/02/17 01:45:33;;;;;;;3.95;1.60;;;;;;;13.31;70.18;101098.72;2087798;28;20041;-75
2022/02/17 01:46:38;;;;;;;6.10;1.85;;;;;;;13.33;70.17;101102.25;2095410;28;20221;-74
2022/02/17 01:47:43;;;;;;;2.72;1.65;;;;;;;13.32;70.24;101097.84;2087899;28;20056;-74
2022/02/17 01:48:45;;;;;;;8.00;2.17;;;;;;;13.31;70.10;101104.00;2095490;28;20063;-75
2022/02/17 01:49:48;;;;;;;2.97;1.52;;;;;;;13.32;70.04;101100.50;2087333;28;20033;-75
2022/02/17 01:50:53;;;;;;;2.60;1.90;;;;;;;13.31;70.28;101093.41;2085807;28;20037;-74
2022/02/17 01:51:58;;;;;;;4.10;1.60;;;;;;;13.31;70.20;101100.47;2086832;28;20037;-74
2022/02/17 01:53:01;;;;;;;4.10;1.42;;;;;;;13.30;70.23;101091.63;2087173;28;20053;-74
2022/02/17 01:54:10;;;;;;;4.45;1.58;;;;;;;13.31;70.26;101096.06;2086707;28;20048;-74
2022/02/17 01:55:13;;;;;;;4.65;2.03;;;;;;;13.32;70.22;101099.59;2086503;28;20061;-74
2022/02/17 01:56:17;;;;;;;2.42;1.50;;;;;;;13.32;70.21;101095.19;2086969;28;20116;-75
2022/02/17 01:57:23;;;;;;;4.55;1.40;;;;;;;13.33;70.29;101096.03;2079319;28;20120;-74
2022/02/17 01:58:38;;;;;;;3.50;1.60;;;;;;;13.31;70.27;101104.00;2082640;28;20045;-74
2022/02/17 01:59:49;;;;;;;2.72;1.50;;;;;;;13.31;70.27;101098.72;2081689;28;20042;-75
2022/02/17 02:01:01;;;;;;;3.47;1.63;;;;;;;13.30;70.26;101104.88;2089776;28;20041;-74
2022/02/17 02:02:03;;;;;;;5.68;1.75;;;;;;;13.30;70.28;101102.22;2088519;28;20451;-74
2022/02/17 02:03:05;;;;;;;3.13;1.33;;;;;;;13.28;70.31;101096.00;2088740;28;20079;-74
2022/02/17 02:04:26;;;;;;;2.88;1.45;;;;;;;13.27;70.32;101102.19;2092240;28;20041;-74
2022/02/17 02:05:35;;;;;;;3.05;1.50;;;;;;;13.25;70.47;101098.66;2097314;28;20052;-75
2022/02/17 02:06:38;;;;;;;3.25;1.50;;;;;;;13.25;70.47;101108.38;2088725;28;20037;-74
2022/02/17 02:07:42;;;;;;;3.75;1.58;;;;;;;13.24;70.54;101096.88;2089472;28;20052;-74
2022/02/17 02:08:56;;;;;;;5.80;1.85;;;;;;;13.23;70.48;101100.38;2088567;28;20037;-75
2022/02/17 02:09:59;;;;;;;5.75;1.85;;;;;;;13.26;70.59;101108.34;2088461;28;20390;-74
2022/02/17 02:11:09;;;;;;;3.95;1.25;;;;;;;13.26;70.58;101104.84;2088733;28;20627;-74
2022/02/17 02:12:20;;;;;;;4.50;1.33;;;;;;;13.25;70.63;101106.59;2087542;28;20048;-75
2022/02/17 02:13:23;;;;;;;3.40;1.35;;;;;;;13.27;70.73;101102.19;2080226;28;20041;-76
2022/02/17 02:14:25;;;;;;;3.38;1.83;;;;;;;13.30;70.74;101111.94;2080750;28;20041;-75
2022/02/17 02:15:41;;;;;;;6.88;1.88;;;;;;;13.30;70.75;101112.84;2087992;28;20420;-75
2022/02/17 02:16:45;;;;;;;3.10;1.23;;;;;;;13.30;70.75;101104.88;2082389;28;20420;-74
2022/02/17 02:17:50;;;;;;;3.08;1.67;;;;;;;13.32;70.68;101107.56;2080214;28;20081;-75
2022/02/17 02:18:52;;;;;;;3.50;1.50;;;;;;;13.31;70.62;101111.97;2088946;28;20044;-74
2022/02/17 02:19:57;;;;;;;2.67;1.40;;;;;;;13.32;70.64;101112.84;2088742;28;20091;-74
2022/02/17 02:21:03;;;;;;;3.38;1.38;;;;;;;13.32;70.65;101103.13;2088441;28;20048;-79
2022/02/17 02:22:09;;;;;;;2.67;1.42;;;;;;;13.31;70.70;101101.34;2081240;28;20079;-74
2022/02/17 02:23:10;;;;;;;1.85;1.10;;;;;;;13.32;70.74;101095.19;2088724;28;20044;-75
2022/02/17 02:24:13;;;;;;;2.90;1.40;;;;;;;13.31;70.85;101097.81;2087717;28;20061;-75
2022/02/17 02:25:14;;;;;;;3.47;1.45;;;;;;;13.30;70.76;101096.03;2088593;28;20041;-74
2022/02/17 02:26:19;;;;;;;4.28;1.52;;;;;;;13.29;70.92;101095.13;2085466;28;20060;-76
2022/02/17 02:27:21;;;;;;;3.28;1.65;;;;;;;13.28;70.87;101098.66;2088199;28;20041;-74
2022/02/17 02:28:26;;;;;;;4.05;1.60;;;;;;;13.30;70.86;101096.94;2087653;28;20055;-74
2022/02/17 02:29:27;;;;;;;4.10;1.63;;;;;;;13.29;70.94;101089.84;2081133;28;20042;-75
2022/02/17 02:30:30;;;;;;;2.72;1.58;;;;;;;13.29;70.88;101091.59;2088543;28;20044;-74
2022/02/17 02:31:33;;;;;;;2.83;1.40;;;;;;;13.30;70.89;101096.03;2088475;28;20374;-75
2022/02/17 02:32:35;;;;;;;4.13;1.60;;;;;;;13.28;70.93;101090.72;2088823;28;20045;-74
2022/02/17 02:33:38;;;;;;;3.97;1.50;;;;;;;13.29;70.96;101097.78;2088542;28;20121;-74
2022/02/17 02:34:39;;;;;;;6.25;1.70;;;;;;;13.31;71.13;101097.81;2088516;28;20124;-74
2022/02/17 02:35:45;;;;;;;3.67;1.27;;;;;;;13.30;71.11;101096.94;2084149;28;20528;-75
2022/02/17 02:36:48;;;;;;;3.08;1.27;;;;;;;13.30;71.22;101091.63;2080366;28;20409;-75
2022/02/17 02:37:51;;;;;;;3.90;1.80;;;;;;;13.31;71.16;101098.72;2089177;28;20045;-75
2022/02/17 02:39:00;;;;;;;8.82;1.45;;;;;;;13.30;71.09;101091.63;2088752;28;20044;-74
2022/02/17 02:40:21;;;;;;;4.00;1.20;;;;;;;13.31;71.34;101092.50;2088951;28;20072;-74
2022/02/17 02:41:23;;;;;;;2.22;1.23;;;;;;;13.32;71.32;101097.84;2084194;28;20053;-74
2022/02/17 02:42:26;;;;;;;6.03;2.53;;;;;;;13.32;71.28;101095.19;2068569;28;20046;-75
2022/02/17 02:43:29;;;;;;;;;;;;;;;13.31;71.41;101093.41;2081497;28;20060;-75
2022/02/17 02:44:31;;;;;;;5.07;1.92;;;;;;;13.31;71.53;101092.50;2080377;28;19943;-74
2022/02/17 02:45:37;;;;;;;7.38;1.40;;;;;;;13.31;71.45;101093.41;2072279;28;20425;-75
2022/02/17 02:46:49;;;;;;;3.40;1.40;;;;;;;13.31;71.44;101090.75;2081678;28;20068;-74
2022/02/17 02:47:53;;;;;;;3.42;1.45;;;;;;;13.32;71.45;101086.34;2081059;28;20371;-75
2022/02/17 02:48:55;;;;;;;4.28;1.45;;;;;;;13.33;71.48;101091.63;2087307;28;20044;-75
2022/02/17 02:49:58;;;;;;;3.38;1.23;;;;;;;13.33;71.47;101090.75;2087196;28;20041;-75
2022/02/17 02:51:00;;;;;;;4.57;1.42;;;;;;;13.34;71.52;101092.53;2088718;28;20401;-74
2022/02/17 02:52:05;;;;;;;4.15;1.15;;;;;;;13.36;71.42;101096.97;2088754;28;20061;-75
2022/02/17 02:53:17;;;;;;;3.63;1.10;;;;;;;13.34;71.70;101090.75;2077625;28;20033;-75
2022/02/17 02:54:19;;;;;;;5.20;1.30;;;;;;;13.35;71.58;101095.19;2080046;28;20046;-75
2022/02/17 02:55:21;;;;;;;5.63;1.77;;;;;;;13.37;71.57;101097.88;2082948;28;20041;-75
2022/02/17 02:56:23;;;;;;;2.95;1.75;;;;;;;13.37;71.62;101088.16;2088558;28;20044;-74
2022/02/17 02:57:26;;;;;;;3.85;1.17;;;;;;;13.37;71.72;101084.63;2081164;28;20041;-74
2022/02/17 02:58:27;;;;;;;4.15;1.85;;;;;;;13.39;71.59;101089.03;2072485;28;20042;-74
2022/02/17 02:59:30;;;;;;;2.70;1.60;;;;;;;13.39;71.66;101089.03;2084650;28;20045;-74
2022/02/17 03:00:36;;;;;;;3.33;1.73;;;;;;;13.41;71.59;101095.25;2088171;28;20456;-74
2022/02/17 03:01:37;;;;;;;3.53;1.33;;;;;;;13.43;71.64;101090.88;2080449;28;20585;-74
2022/02/17 03:02:40;;;;;;;5.18;1.77;;;;;;;13.41;71.56;101089.06;2073828;28;20103;-73
2022/02/17 03:03:41;;;;;;;3.00;1.30;;;;;;;13.45;71.72;101096.19;2088422;28;20493;-74
2022/02/17 03:04:44;;;;;;;;;;;;;;;13.46;71.67;101087.31;2096901;28;20040;-74
2022/02/17 03:05:51;;;;;;;3.10;1.45;;;;;;;13.45;71.87;101085.59;2088028;28;19950;-73
2022/02/17 03:06:53;;;;;;;3.42;1.50;;;;;;;13.48;72.00;101074.97;2088315;28;20140;-74
2022/02/17 03:08:00;;;;;;;4.22;1.27;;;;;;;13.51;71.67;101078.56;2089019;28;20040;-75
2022/02/17 03:09:01;;;;;;;4.38;1.60;;;;;;;13.53;71.62;101082.09;2088837;28;20045;-74
2022/02/17 03:10:07;;;;;;;2.60;1.23;;;;;;;13.55;71.58;101077.69;2088195;28;20080;-74
2022/02/17 03:11:08;;;;;;;3.90;1.58;;;;;;;13.54;71.59;101073.28;2088333;28;20049;-74
2022/02/17 03:12:17;;;;;;;3.70;1.52;;;;;;;13.55;71.59;101064.44;2080175;28;20043;-74
2022/02/17 03:13:22;;;;;;;2.88;1.42;;;;;;;13.56;71.74;101068.88;2080424;28;20091;-73
2022/02/17 03:14:23;;;;;;;2.95;1.48;;;;;;;13.57;71.89;101065.34;2080331;28;20164;-74
2022/02/17 03:15:29;;;;;;;5.15;1.50;;;;;;;13.56;71.80;101060.91;2095649;28;20457;-75
2022/02/17 03:16:31;;;;;;;2.67;1.40;;;;;;;13.57;71.81;101065.34;2088024;28;20052;-74
2022/02/17 03:17:33;;;;;;;2.65;1.00;;;;;;;13.59;71.93;101069.78;2096834;28;20044;-74
2022/02/17 03:18:35;;;;;;;4.78;1.55;;;;;;;13.61;71.89;101066.25;2104659;28;20036;-74
2022/02/17 03:19:38;;;;;;;1.83;1.00;;;;;;;13.64;71.93;101065.41;2096256;28;20578;-73
2022/02/17 03:20:40;;;;;;;3.92;1.50;;;;;;;13.69;71.96;101068.97;2099803;28;20515;-74
2022/02/17 03:21:50;;;;;;;4.78;1.40;;;;;;;13.73;71.87;101065.44;2096327;28;20524;-74
2022/02/17 03:22:53;;;;;;;4.95;1.35;;;;;;;13.76;71.74;101057.53;2089226;28;20037;-74
2022/02/17 03:23:56;;;;;;;2.55;1.30;;;;;;;13.78;71.63;101066.41;2096021;28;20437;-73
2022/02/17 03:24:59;;;;;;;1.63;1.05;;;;;;;13.75;71.70;101064.59;2094633;28;20627;-74
2022/02/17 03:26:00;;;;;;;2.92;1.38;;;;;;;13.74;71.75;101052.19;2088055;28;20108;-74
2022/02/17 03:27:03;;;;;;;3.72;1.65;;;;;;;13.77;71.62;101054.91;2088237;28;20107;-74
2022/02/17 03:28:06;;;;;;;3.05;1.33;;;;;;;13.78;71.68;101054.03;2089872;28;20036;-74
2022/02/17 03:29:12;;;;;;;3.85;1.63;;;;;;;13.82;71.65;101057.56;2092436;28;20033;-74
2022/02/17 03:30:20;;;;;;;2.78;1.27;;;;;;;13.82;71.60;101063.78;2087444;28;20100;-74
2022/02/17 03:31:23;;;;;;;5.03;1.52;;;;;;;13.82;71.63;101063.78;2088812;28;20501;-74
2022/02/17 03:32:33;;;;;;;4.38;1.80;;;;;;;13.83;71.63;101059.34;2088091;28;20037;-74
2022/02/17 03:33:34;;;;;;;3.20;1.30;;;;;;;13.83;71.63;101060.25;2080357;28;20065;-74
2022/02/17 03:34:39;;;;;;;3.88;1.45;;;;;;;13.82;71.61;101058.47;2078566;28;20042;-74
2022/02/17 03:35:41;;;;;;;3.97;1.48;;;;;;;13.82;71.69;101061.13;2080129;28;20146;-74
2022/02/17 03:36:45;;;;;;;4.35;1.20;;;;;;;13.82;71.69;101066.41;2077803;28;20117;-75
2022/02/17 03:37:47;;;;;;;4.03;1.52;;;;;;;13.82;71.72;101057.56;2079553;28;20477;-75
2022/02/17 03:38:51;;;;;;;5.28;1.58;;;;;;;13.79;71.69;101062.84;2088497;28;20037;-74
2022/02/17 03:39:54;;;;;;;3.25;1.73;;;;;;;13.80;71.66;101062.84;2087791;28;20463;-74
2022/02/17 03:41:09;;;;;;;1.77;1.30;;;;;;;13.79;71.90;101065.50;2089762;28;20557;-75
2022/02/17 03:42:11;;;;;;;3.78;1.23;;;;;;;13.80;71.67;101057.56;2088177;28;20041;-75
2022/02/17 03:43:14;;;;;;;6.72;1.85;;;;;;;13.80;71.82;101051.34;2088042;28;20071;-75
2022/02/17 03:44:17;;;;;;;2.38;1.60;;;;;;;13.83;71.74;101056.69;2087267;28;20056;-74
2022/02/17 03:45:23;;;;;;;3.42;1.30;;;;;;;13.83;71.65;101051.38;2079720;28;20076;-74
2022/02/17 03:46:27;;;;;;;2.97;1.35;;;;;;;13.84;71.57;101053.16;2080674;28;20076;-74
2022/02/17 03:47:30;;;;;;;3.28;1.33;;;;;;;13.82;71.64;101045.19;2092245;28;20054;-74
2022/02/17 03:48:38;;;;;;;1.83;0.98;;;;;;;13.83;71.64;101059.34;2087874;28;20033;-75
2022/02/17 03:49:44;;;;;;;4.57;1.75;;;;;;;13.82;71.72;101057.56;2087550;28;20041;-75
2022/02/17 03:50:47;;;;;;;2.88;1.13;;;;;;;13.82;71.70;101060.22;2080184;28;20128;-74
2022/02/17 03:51:52;;;;;;;5.15;2.08;;;;;;;13.82;71.74;101061.13;2079970;28;20056;-74
2022/02/17 03:53:12;;;;;;;3.88;1.92;;;;;;;13.82;71.69;101054.91;2090113;28;20131;-76
2022/02/17 03:54:25;;;;;;;3.95;1.20;;;;;;;13.79;71.67;101047.81;2087728;28;20041;-74
2022/02/17 03:55:36;;;;;;;4.03;1.95;;;;;;;13.79;71.83;101052.22;2089227;28;20048;-74
2022/02/17 03:56:39;;;;;;;3.63;1.70;;;;;;;13.79;71.87;101057.53;2088019;28;20041;-75
2022/02/17 03:57:58;;;;;;;3.58;1.70;;;;;;;13.79;71.89;101054.88;2098045;28;20040;-74
2022/02/17 03:59:03;;;;;;;4.20;1.75;;;;;;;13.80;71.92;101046.03;2093719;28;20159;-75
2022/02/17 04:00:11;;;;;;;3.22;1.70;;;;;;;13.80;71.88;101046.94;2088597;28;20044;-74
2022/02/17 04:01:18;;;;;;;3.15;1.40;;;;;;;13.80;71.94;101048.69;2094749;28;20048;-74
2022/02/17 04:02:23;;;;;;;4.47;1.50;;;;;;;13.79;71.93;101045.16;2087887;28;20044;-75
2022/02/17 04:03:25;;;;;;;2.47;1.15;;;;;;;13.78;71.90;101042.53;2079456;28;20413;-75
2022/02/17 04:04:27;;;;;;;5.43;1.60;;;;;;;13.78;71.92;101040.75;2087166;28;20408;-74
2022/02/17 04:05:29;;;;;;;3.03;1.50;;;;;;;13.78;71.96;101050.47;2087440;28;20138;-74
2022/02/17 04:06:42;;;;;;;3.78;1.60;;;;;;;13.78;71.99;101053.13;2079559;28;20061;-75
2022/02/17 04:07:44;;;;;;;5.10;1.48;;;;;;;13.77;71.99;101046.94;2081509;28;20103;-75
2022/02/17 04:08:59;;;;;;;5.95;1.52;;;;;;;13.76;72.11;101047.81;2088132;28;20564;-74
2022/02/17 04:10:02;;;;;;;4.43;1.35;;;;;;;13.77;72.37;101051.34;2087593;28;20072;-74
2022/02/17 04:11:06;;;;;;;2.40;1.20;;;;;;;13.79;72.12;101046.91;2087920;28;20037;-74
2022/02/17 04:12:14;;;;;;;4.38;1.85;;;;;;;13.75;72.20;101045.13;2086972;28;20459;-75
2022/02/17 04:13:16;;;;;;;6.20;1.65;;;;;;;13.76;72.26;101046.91;2087693;28;20044;-75
2022/02/17 04:14:24;;;;;;;3.00;1.33;;;;;;;13.73;72.09;101045.13;2095623;28;20060;-75
2022/02/17 04:15:28;;;;;;;2.58;1.30;;;;;;;13.74;72.10;101043.34;2086772;28;20045;-74
2022/02/17 04:16:31;;;;;;;5.00;2.47;;;;;;;13.74;72.26;101048.66;2079394;28;20698;-74
2022/02/17 04:17:46;;;;;;;3.63;1.67;;;;;;;13.72;72.35;101048.63;2081011;28;20041;-74
2022/02/17 04:19:08;;;;;;;3.65;1.40;;;;;;;13.71;72.30;101046.00;2079225;28;20107;-75
2022/02/17 04:20:31;;;;;;;3.67;1.63;;;;;;;13.72;72.23;101053.09;2084231;28;20045;-75
2022/02/17 04:21:40;;;;;;;4.25;1.40;;;;;;;13.69;72.26;101045.09;2087535;28;20793;-74
2022/02/17 04:23:08;;;;;;;4.38;1.58;;;;;;;13.68;72.31;101044.19;2090886;28;20105;-74
2022/02/17 04:24:12;;;;;;;4.03;1.60;;;;;;;13.70;72.41;101049.53;2086706;28;20041;-75
2022/02/17 04:25:26;;;;;;;4.22;1.90;;;;;;;13.70;72.35;101045.09;2073068;28;20486;-74
2022/02/17 04:26:31;;;;;;;3.67;1.80;;;;;;;13.70;72.25;101039.81;2081881;28;20524;-74
2022/02/17 04:27:39;;;;;;;2.35;1.25;;;;;;;13.70;72.44;101034.50;2087711;28;20041;-74
2022/02/17 04:28:45;;;;;;;6.78;2.58;;;;;;;13.70;72.41;101034.50;2095137;28;20406;-75
2022/02/17 04:29:48;;;;;;;2.38;1.15;;;;;;;13.71;72.44;101030.09;2087601;28;20041;-74
2022/02/17 04:30:51;;;;;;;4.07;1.80;;;;;;;13.69;72.28;101027.41;2087369;28;20083;-74
2022/02/17 04:31:53;;;;;;;5.32;1.65;;;;;;;13.68;72.44;101035.34;2095179;28;20036;-74
2022/02/17 04:33:00;;;;;;;2.67;1.20;;;;;;;13.69;72.42;101037.13;2087297;28;20037;-74
2022/02/17 04:34:23;;;;;;;6.40;1.83;;;;;;;13.65;72.54;101022.09;2086998;28;20121;-74
2022/02/17 04:35:25;;;;;;;3.45;1.70;;;;;;;13.64;72.66;101034.47;2087690;28;20041;-74
2022/02/17 04:36:29;;;;;;;2.28;1.25;;;;;;;13.65;72.73;101036.25;2087434;28;20179;-74
2022/02/17 04:37:31;;;;;;;4.93;1.98;;;;;;;13.66;72.73;101032.69;2087711;28;20048;-74
2022/02/17 04:38:34;;;;;;;4.03;1.50;;;;;;;13.66;72.65;101023.81;2087744;28;20410;-74
2022/02/17 04:39:37;;;;;;;3.58;1.48;;;;;;;13.64;72.54;101033.56;2082643;28;20124;-74
2022/02/17 04:42:19;;;;;;;3.55;1.50;;;;;;;13.62;72.73;101035.31;2087062;28;20128;-75
2022/02/17 04:43:23;;;;;;;3.70;1.90;;;;;;;13.61;72.80;101037.06;2096295;28;20039;-74
2022/02/17 04:44:26;;;;;;;6.20;1.98;;;;;;;13.65;72.74;101043.31;2095532;28;20090;-74
2022/02/17 04:45:28;;;;;;;2.97;1.35;;;;;;;13.64;72.86;101038.88;2087405;28;20488;-74
2022/02/17 04:46:32;;;;;;;3.28;1.80;;;;;;;13.61;72.79;101039.72;2087397;28;20691;-74
2022/02/17 04:47:34;;;;;;;7.00;2.40;;;;;;;13.61;72.72;101038.84;2087187;28;20048;-74
2022/02/17 04:48:37;;;;;;;3.70;1.70;;;;;;;13.59;72.86;101035.31;2085947;28;20526;-75
2022/02/17 04:49:45;;;;;;;2.75;1.40;;;;;;;13.57;73.02;101036.19;2071368;28;20066;-75
2022/02/17 04:50:46;;;;;;;3.38;1.70;;;;;;;13.59;72.94;101036.16;2080532;28;20394;-75
2022/02/17 04:51:50;;;;;;;;;;;;;;;13.61;72.94;101036.19;2088067;28;20064;-74
2022/02/17 04:52:53;;;;;;;4.90;1.75;;;;;;;13.60;73.11;101047.66;2079177;28;19920;-75
2022/02/17 04:53:56;;;;;;;4.45;1.60;;;;;;;13.59;72.98;101051.22;2087422;28;20059;-75
2022/02/17 04:54:57;;;;;;;6.50;2.40;;;;;;;13.58;72.81;101050.31;2079128;28;20049;-74
2022/02/17 04:56:00;;;;;;;;;;;;;;;13.54;72.85;101054.69;2079184;28;20045;-75
2022/02/17 04:57:02;;;;;;;3.58;1.48;;;;;;;13.50;72.95;101050.25;2084884;28;19992;-74
2022/02/17 04:58:11;;;;;;;2.97;1.65;;;;;;;13.46;72.99;101052.84;2087770;28;20489;-75
2022/02/17 04:59:13;;;;;;;4.97;1.90;;;;;;;13.44;72.96;101051.97;2096100;28;20106;-75
2022/02/17 05:00:18;;;;;;;4.43;1.77;;;;;;;13.40;73.06;101051.03;2103353;28;20040;-74
2022/02/17 05:01:22;;;;;;;2.83;1.77;;;;;;;13.39;73.13;101053.72;2104053;28;20035;-75
2022/02/17 05:02:41;;;;;;;2.92;1.27;;;;;;;13.37;73.24;101048.38;2091966;28;20037;-75